createdAt,value
2018-01-07T00:00:49.766Z,17.13
2018-01-07T00:03:18.826Z,18.07
2018-01-07T00:05:47.266Z,18.87
2018-01-07T00:08:15.595Z,17.57
2018-01-07T00:10:43.899Z,19.67
2018-01-07T00:13:12.203Z,18.00
2018-01-07T00:15:40.496Z,19.00
2018-01-07T00:18:08.814Z,17.93
2018-01-07T00:20:37.107Z,18.40
2018-01-07T00:23:05.402Z,17.97
2018-01-07T00:25:33.688Z,19.57
2018-01-07T00:28:02.000Z,20.67
2018-01-07T00:30:31.188Z,21.03
2018-01-07T00:32:59.509Z,20.63
2018-01-07T00:35:27.802Z,19.17
2018-01-07T00:37:56.106Z,18.87
2018-01-07T00:40:24.404Z,19.00
2018-01-07T00:42:52.759Z,18.63
2018-01-07T00:45:21.816Z,19.27
2018-01-07T00:47:50.109Z,20.87
2018-01-07T00:50:18.400Z,21.63
2018-01-07T00:52:46.694Z,37.63
2018-01-07T00:55:15.038Z,17.53
2018-01-07T00:57:43.334Z,17.40
2018-01-07T01:00:11.645Z,20.10
2018-01-07T01:02:39.930Z,19.73
2018-01-07T01:05:08.227Z,19.90
2018-01-07T01:07:36.559Z,17.73
2018-01-07T01:10:04.862Z,18.17
2018-01-07T01:12:33.926Z,21.07
2018-01-07T01:15:02.240Z,19.57
2018-01-07T01:17:30.535Z,23.40
2018-01-07T01:19:59.653Z,19.60
2018-01-07T01:22:28.778Z,19.00
2018-01-07T01:24:57.832Z,16.43
2018-01-07T01:27:26.133Z,14.97
2018-01-07T01:29:54.427Z,40.17
2018-01-07T01:32:22.757Z,17.53
2018-01-07T01:34:51.823Z,14.73
2018-01-07T01:37:20.115Z,13.63
2018-01-07T01:39:48.418Z,14.30
2018-01-07T01:42:16.844Z,13.70
2018-01-07T01:44:45.139Z,13.73
2018-01-07T01:47:13.555Z,12.90
2018-01-07T01:49:41.855Z,13.17
2018-01-07T01:52:10.152Z,13.70
2018-01-07T01:54:38.472Z,12.97
2018-01-07T01:57:07.563Z,12.40
2018-01-07T01:59:35.862Z,13.60
2018-01-07T02:02:04.202Z,11.47
2018-01-07T02:04:32.512Z,12.00
2018-01-07T02:07:00.827Z,10.93
2018-01-07T02:09:29.175Z,11.17
2018-01-07T02:11:57.475Z,11.07
2018-01-07T02:14:25.775Z,10.33
2018-01-07T02:16:54.106Z,11.30
2018-01-07T02:19:23.404Z,11.97
2018-01-07T02:21:51.704Z,11.27
2018-01-07T02:24:20.762Z,10.00
2018-01-07T02:26:49.075Z,9.20
2018-01-07T02:29:17.386Z,8.07
2018-01-07T02:31:45.686Z,11.63
2018-01-07T02:34:14.739Z,8.00
2018-01-07T02:36:43.028Z,8.03
2018-01-07T02:39:11.352Z,9.07
2018-01-07T02:41:39.650Z,7.60
2018-01-07T02:44:07.946Z,8.10
2018-01-07T02:46:36.265Z,7.67
2018-01-07T02:49:04.570Z,8.00
2018-01-07T02:51:32.871Z,9.47
2018-01-07T02:54:01.176Z,7.70
2018-01-07T02:56:29.478Z,30.33
2018-01-07T02:58:57.802Z,8.33
2018-01-07T03:01:26.854Z,7.40
2018-01-07T03:03:55.172Z,8.43
2018-01-07T03:06:23.463Z,7.03
2018-01-07T03:08:51.759Z,9.77
2018-01-07T03:11:20.076Z,7.20
2018-01-07T03:13:49.121Z,7.00
2018-01-07T03:16:17.406Z,5.77
2018-01-07T03:18:45.700Z,5.37
2018-01-07T03:21:14.012Z,5.60
2018-01-07T03:23:42.337Z,5.33
2018-01-07T03:26:10.636Z,4.53
2018-01-07T03:28:39.686Z,4.43
2018-01-07T03:31:08.216Z,3.60
2018-01-07T03:33:36.507Z,4.67
2018-01-07T03:36:04.807Z,4.60
2018-01-07T03:38:33.914Z,4.70
2018-01-07T03:41:02.957Z,3.20
2018-01-07T03:43:32.008Z,2.67
2018-01-07T03:46:00.319Z,3.93
2018-01-07T03:48:28.597Z,3.83
2018-01-07T03:50:56.903Z,3.40
2018-01-07T03:53:25.948Z,3.70
2018-01-07T03:55:54.233Z,3.80
2018-01-07T03:58:22.649Z,5.07
2018-01-07T04:00:51.192Z,3.97
2018-01-07T04:03:20.233Z,4.90
2018-01-07T04:05:48.549Z,5.00
2018-01-07T04:08:16.826Z,4.00
2018-01-07T04:10:45.147Z,4.20
2018-01-07T04:13:13.451Z,5.53
2018-01-07T04:15:42.510Z,4.13
2018-01-07T04:18:10.833Z,4.50
2018-01-07T04:20:39.122Z,5.80
2018-01-07T04:23:07.427Z,5.03
2018-01-07T04:25:36.482Z,5.77
2018-01-07T04:28:04.775Z,5.87
2018-01-07T04:30:33.096Z,6.33
2018-01-07T04:33:01.431Z,6.70
2018-01-07T04:35:29.735Z,7.40
2018-01-07T04:37:58.020Z,5.60
2018-01-07T04:40:26.298Z,7.73
2018-01-07T04:42:54.580Z,7.20
2018-01-07T04:45:23.655Z,6.17
2018-01-07T04:47:51.938Z,7.10
2018-01-07T04:50:20.223Z,7.60
2018-01-07T04:52:48.510Z,7.57
2018-01-07T04:55:16.800Z,8.00
2018-01-07T04:57:45.123Z,6.60
2018-01-07T05:00:13.407Z,7.90
2018-01-07T05:02:41.710Z,6.87
2018-01-07T05:05:10.762Z,8.33
2018-01-07T05:07:39.091Z,7.53
2018-01-07T05:10:07.390Z,7.27
2018-01-07T05:12:36.722Z,7.10
2018-01-07T05:15:05.796Z,6.80
2018-01-07T05:17:34.100Z,6.10
2018-01-07T05:20:02.503Z,8.03
2018-01-07T05:22:31.603Z,8.03
2018-01-07T05:25:00.694Z,7.30
2018-01-07T05:27:29.775Z,8.10
2018-01-07T05:29:58.064Z,6.90
2018-01-07T05:32:26.346Z,7.27
2018-01-07T05:34:54.673Z,7.00
2018-01-07T05:37:22.967Z,8.03
2018-01-07T05:39:51.259Z,9.07
2018-01-07T05:42:19.555Z,9.00
2018-01-07T05:44:47.842Z,7.80
2018-01-07T05:47:16.944Z,7.70
2018-01-07T05:49:45.263Z,15.03
2018-01-07T05:52:13.567Z,9.00
2018-01-07T05:54:41.869Z,12.00
2018-01-07T05:57:10.524Z,9.37
2018-01-07T05:59:38.892Z,9.67
2018-01-07T06:02:07.216Z,11.10
2018-01-07T06:04:36.276Z,9.97
2018-01-07T06:07:04.606Z,8.63
2018-01-07T06:09:32.900Z,9.60
2018-01-07T06:12:02.242Z,10.30
2018-01-07T06:14:30.543Z,9.27
2018-01-07T06:16:58.910Z,10.20
2018-01-07T06:19:27.263Z,9.53
2018-01-07T06:21:55.567Z,10.40
2018-01-07T06:24:24.754Z,9.43
2018-01-07T06:26:53.057Z,10.00
2018-01-07T06:29:21.379Z,9.10
2018-01-07T06:31:49.670Z,9.70
2018-01-07T06:34:17.966Z,15.60
2018-01-07T06:36:46.305Z,10.00
2018-01-07T06:39:14.607Z,9.30
2018-01-07T06:41:42.904Z,10.80
2018-01-07T06:44:11.967Z,9.70
2018-01-07T06:46:40.267Z,50.63
2018-01-07T06:49:08.620Z,10.93
2018-01-07T06:51:37.687Z,10.83
2018-01-07T06:54:05.999Z,9.30
2018-01-07T06:56:34.303Z,22.37
2018-01-07T06:59:03.370Z,11.53
2018-01-07T07:01:32.851Z,8.80
2018-01-07T07:04:01.912Z,11.60
2018-01-07T07:06:30.246Z,9.70
2018-01-07T07:08:58.531Z,11.60
2018-01-07T07:11:26.825Z,9.83
2018-01-07T07:13:55.158Z,9.57
2018-01-07T07:16:23.447Z,8.60
2018-01-07T07:18:51.739Z,9.40
2018-01-07T07:21:20.044Z,6.20
2018-01-07T07:23:48.334Z,8.90
2018-01-07T07:26:16.690Z,10.03
2018-01-07T07:28:44.990Z,10.50
2018-01-07T07:31:13.281Z,9.63
2018-01-07T07:33:41.579Z,10.03
2018-01-07T07:36:10.655Z,9.80
2018-01-07T07:38:38.977Z,9.27
2018-01-07T07:41:07.272Z,9.10
2018-01-07T07:43:35.567Z,9.80
2018-01-07T07:46:03.879Z,9.50
2018-01-07T07:48:32.942Z,9.77
2018-01-07T07:51:01.295Z,9.07
2018-01-07T07:53:29.602Z,8.93
2018-01-07T07:55:57.890Z,8.67
2018-01-07T07:58:26.200Z,9.23
2018-01-07T08:00:54.487Z,10.30
2018-01-07T08:03:22.820Z,7.37
2018-01-07T08:05:51.120Z,8.20
2018-01-07T08:08:20.184Z,8.97
2018-01-07T08:10:48.488Z,7.20
2018-01-07T08:13:16.779Z,9.60
2018-01-07T08:15:45.106Z,8.23
2018-01-07T08:18:13.411Z,7.80
2018-01-07T08:20:41.703Z,8.67
2018-01-07T08:23:10.064Z,9.77
2018-01-07T08:25:39.127Z,8.20
2018-01-07T08:28:07.440Z,8.30
2018-01-07T08:30:35.747Z,9.20
2018-01-07T08:33:04.192Z,11.00
2018-01-07T08:35:32.510Z,8.90
2018-01-07T08:38:00.835Z,8.33
2018-01-07T08:40:29.912Z,8.70
2018-01-07T08:42:58.217Z,8.27
2018-01-07T08:45:26.586Z,7.40
2018-01-07T08:47:55.221Z,7.60
2018-01-07T08:50:24.291Z,8.20
2018-01-07T08:52:52.597Z,26.50
2018-01-07T08:55:20.894Z,9.30
2018-01-07T08:57:49.223Z,6.80
2018-01-07T09:00:18.320Z,9.77
2018-01-07T09:02:46.612Z,8.90
2018-01-07T09:05:14.914Z,11.23
2018-01-07T09:07:43.217Z,8.00
2018-01-07T09:10:11.510Z,7.03
2018-01-07T09:12:39.869Z,8.23
2018-01-07T09:15:08.928Z,7.60
2018-01-07T09:17:37.224Z,11.10
2018-01-07T09:20:05.535Z,7.97
2018-01-07T09:22:34.081Z,7.90
2018-01-07T09:25:02.635Z,8.63
2018-01-07T09:27:30.926Z,7.80
2018-01-07T09:30:00.027Z,10.70
2018-01-07T09:32:29.101Z,8.90
2018-01-07T09:34:57.414Z,8.70
2018-01-07T09:37:25.742Z,7.80
2018-01-07T09:39:54.391Z,7.67
2018-01-07T09:42:22.695Z,9.10
2018-01-07T09:44:51.027Z,8.70
2018-01-07T09:47:19.330Z,7.50
2018-01-07T09:49:47.622Z,8.20
2018-01-07T09:52:15.923Z,11.47
2018-01-07T09:54:44.221Z,7.93
2018-01-07T09:57:12.508Z,7.37
2018-01-07T09:59:40.807Z,6.70
2018-01-07T10:02:09.238Z,7.27
2018-01-07T10:04:38.300Z,5.97
2018-01-07T10:07:06.583Z,7.17
2018-01-07T10:09:34.911Z,6.97
2018-01-07T10:12:03.204Z,6.77
2018-01-07T10:14:32.412Z,10.37
2018-01-07T10:17:00.728Z,6.70
2018-01-07T10:19:29.118Z,7.40
2018-01-07T10:21:57.431Z,8.80
2018-01-07T10:24:25.733Z,7.37
2018-01-07T10:26:54.152Z,7.10
2018-01-07T10:29:22.444Z,4.70
2018-01-07T10:31:50.772Z,6.40
2018-01-07T10:34:19.834Z,7.27
2018-01-07T10:36:48.128Z,6.57
2018-01-07T10:39:16.458Z,6.80
2018-01-07T10:41:45.556Z,7.30
2018-01-07T10:44:14.616Z,6.27
2018-01-07T10:49:18.302Z,5.00
2018-01-07T10:51:47.374Z,6.80
2018-01-07T10:54:15.671Z,6.40
2018-01-07T10:56:43.999Z,7.70
2018-01-07T10:59:13.068Z,7.10
2018-01-07T11:01:47.151Z,7.30
2018-01-07T11:04:15.457Z,7.90
2018-01-07T11:06:43.760Z,6.73
2018-01-07T11:09:12.059Z,6.20
2018-01-07T11:11:40.376Z,6.93
2018-01-07T11:14:08.730Z,6.50
2018-01-07T11:16:37.021Z,7.00
2018-01-07T11:19:05.311Z,5.70
2018-01-07T11:21:33.613Z,6.47
2018-01-07T11:24:01.930Z,6.63
2018-01-07T11:26:30.310Z,6.73
2018-01-07T11:28:58.602Z,6.50
2018-01-07T11:31:26.896Z,6.80
2018-01-07T11:33:55.205Z,6.23
2018-01-07T11:36:24.260Z,7.77
2018-01-07T11:38:52.596Z,6.13
2018-01-07T11:41:20.898Z,6.70
2018-01-07T11:43:49.964Z,7.47
2018-01-07T11:46:18.275Z,6.53
2018-01-07T11:48:46.596Z,8.80
2018-01-07T11:51:15.687Z,7.00
2018-01-07T11:53:44.756Z,6.30
2018-01-07T11:56:13.045Z,6.97
2018-01-07T11:58:41.346Z,7.43
2018-01-07T12:01:09.647Z,6.60
2018-01-07T12:03:38.746Z,6.90
2018-01-07T12:06:07.039Z,7.73
2018-01-07T12:08:35.392Z,7.40
2018-01-07T12:11:03.680Z,6.33
2018-01-07T12:13:32.007Z,6.30
2018-01-07T12:16:00.317Z,6.33
2018-01-07T12:18:28.636Z,6.60
2018-01-07T12:20:57.728Z,6.40
2018-01-07T12:23:26.795Z,8.37
2018-01-07T12:25:55.085Z,6.10
2018-01-07T12:28:23.377Z,7.50
2018-01-07T12:30:51.671Z,7.03
2018-01-07T12:33:20.005Z,7.23
2018-01-07T12:35:49.061Z,8.40
2018-01-07T12:38:17.370Z,7.20
2018-01-07T12:40:45.694Z,8.07
2018-01-07T12:43:14.772Z,7.37
2018-01-07T12:45:43.860Z,7.60
2018-01-07T12:48:12.229Z,7.47
2018-01-07T12:50:40.503Z,7.90
2018-01-07T12:53:08.811Z,7.77
2018-01-07T12:55:37.104Z,9.03
2018-01-07T12:58:05.399Z,8.90
2018-01-07T13:00:33.731Z,8.30
2018-01-07T13:03:02.070Z,7.97
2018-01-07T13:05:30.381Z,8.00
2018-01-07T13:07:58.689Z,9.80
2018-01-07T13:10:26.987Z,7.53
2018-01-07T13:12:55.306Z,8.90
2018-01-07T13:15:24.367Z,7.20
2018-01-07T13:17:52.672Z,16.63
2018-01-07T13:20:20.989Z,8.00
2018-01-07T13:22:49.275Z,7.80
2018-01-07T13:25:18.383Z,7.90
2018-01-07T13:27:47.439Z,9.00
2018-01-07T13:30:15.743Z,7.47
2018-01-07T13:32:44.063Z,4.37
2018-01-07T13:35:13.149Z,8.10
2018-01-07T13:37:41.441Z,7.07
2018-01-07T13:40:09.731Z,7.10
2018-01-07T13:42:38.030Z,8.77
2018-01-07T13:45:06.484Z,7.07
2018-01-07T13:47:35.559Z,8.07
2018-01-07T13:50:04.631Z,7.23
2018-01-07T13:52:32.934Z,8.40
2018-01-07T13:55:01.237Z,7.27
2018-01-07T13:57:30.360Z,8.70
2018-01-07T13:59:59.469Z,8.70
2018-01-07T14:02:28.537Z,7.97
2018-01-07T14:04:56.833Z,7.27
2018-01-07T14:07:25.140Z,7.97
2018-01-07T14:09:53.510Z,7.67
2018-01-07T14:12:21.817Z,9.20
2018-01-07T14:14:50.139Z,7.87
2018-01-07T14:17:18.565Z,7.83
2018-01-07T14:19:46.867Z,8.70
2018-01-07T14:22:15.172Z,8.40
2018-01-07T14:24:43.703Z,9.73
2018-01-07T14:27:12.006Z,9.70
2018-01-07T14:29:40.309Z,9.00
2018-01-07T14:32:08.619Z,8.63
2018-01-07T14:34:37.073Z,8.50
2018-01-07T14:37:05.373Z,10.13
2018-01-07T14:39:33.677Z,8.87
2018-01-07T14:42:01.978Z,8.77
2018-01-07T14:44:30.335Z,8.97
2018-01-07T14:46:58.633Z,9.17
2018-01-07T14:49:26.979Z,8.63
2018-01-07T14:51:55.280Z,8.73
2018-01-07T14:54:24.348Z,10.30
2018-01-07T14:56:52.745Z,9.27
2018-01-07T14:59:21.039Z,10.80
2018-01-07T15:01:49.376Z,9.97
2018-01-07T15:04:17.683Z,10.40
2018-01-07T15:06:45.987Z,10.13
2018-01-07T15:09:14.294Z,9.63
2018-01-07T15:11:42.611Z,8.50
2018-01-07T15:14:10.946Z,8.47
2018-01-07T15:16:39.243Z,9.30
2018-01-07T15:19:07.537Z,9.47
2018-01-07T15:21:35.843Z,10.00
2018-01-07T15:24:04.164Z,9.73
2018-01-07T15:26:32.507Z,8.30
2018-01-07T15:29:00.825Z,9.67
2018-01-07T15:31:29.123Z,10.73
2018-01-07T15:33:57.413Z,9.33
2018-01-07T15:36:25.718Z,8.57
2018-01-07T15:38:54.815Z,10.63
2018-01-07T15:41:23.104Z,10.20
2018-01-07T15:43:52.196Z,11.13
2018-01-07T15:46:20.494Z,9.80
2018-01-07T15:48:48.810Z,10.97
2018-01-07T15:51:17.971Z,12.07
2018-01-07T15:53:46.267Z,11.03
2018-01-07T15:56:14.559Z,9.90
2018-01-07T15:58:42.851Z,10.23
2018-01-07T16:01:12.148Z,9.63
2018-01-07T16:03:40.447Z,10.77
2018-01-07T16:06:08.748Z,9.00
2018-01-07T16:08:37.076Z,9.33
2018-01-07T16:11:06.174Z,9.80
2018-01-07T16:13:34.483Z,9.13
2018-01-07T16:16:03.594Z,9.57
2018-01-07T16:18:32.647Z,9.23
2018-01-07T16:21:00.951Z,9.00
2018-01-07T16:23:29.285Z,9.80
2018-01-07T16:25:58.347Z,10.03
2018-01-07T16:28:26.680Z,7.93
2018-01-07T16:30:55.735Z,9.70
2018-01-07T16:33:24.030Z,9.40
2018-01-07T16:35:52.355Z,9.63
2018-01-07T16:38:21.425Z,9.67
2018-01-07T16:40:49.758Z,8.60
2018-01-07T16:43:18.824Z,8.70
2018-01-07T16:45:47.122Z,9.93
2018-01-07T16:48:15.416Z,8.80
2018-01-07T16:50:43.707Z,8.80
2018-01-07T16:53:12.130Z,10.50
2018-01-07T16:55:41.216Z,9.03
2018-01-07T16:58:09.520Z,8.43
2018-01-07T17:00:37.818Z,8.40
2018-01-07T17:03:06.877Z,9.07
2018-01-07T17:05:35.209Z,10.87
2018-01-07T17:08:04.286Z,9.43
2018-01-07T17:10:32.584Z,7.43
2018-01-07T17:13:00.910Z,9.40
2018-01-07T17:15:29.240Z,8.03
2018-01-07T17:17:57.581Z,9.57
2018-01-07T17:20:26.627Z,8.27
2018-01-07T17:22:54.916Z,9.03
2018-01-07T17:25:23.217Z,8.30
2018-01-07T17:27:51.507Z,8.17
2018-01-07T17:30:19.934Z,8.30
2018-01-07T17:32:48.227Z,8.67
2018-01-07T17:35:16.531Z,7.93
2018-01-07T17:37:45.586Z,8.33
2018-01-07T17:40:13.902Z,8.57
2018-01-07T17:42:42.227Z,12.80
2018-01-07T17:45:11.298Z,9.13
2018-01-07T17:47:39.599Z,8.50
2018-01-07T17:50:07.897Z,9.23
2018-01-07T17:52:36.187Z,9.77
2018-01-07T17:55:04.515Z,9.83
2018-01-07T17:57:32.820Z,8.93
2018-01-07T18:00:01.138Z,9.10
2018-01-07T18:02:29.499Z,9.37
2018-01-07T18:04:57.790Z,7.50
2018-01-07T18:07:26.119Z,8.70
2018-01-07T18:09:54.439Z,9.70
2018-01-07T18:12:23.499Z,8.70
2018-01-07T18:14:51.795Z,10.00
2018-01-07T18:17:20.100Z,9.33
2018-01-07T18:19:48.392Z,9.47
2018-01-07T18:22:16.749Z,9.13
2018-01-07T18:24:45.035Z,8.67
2018-01-07T18:27:13.341Z,8.20
2018-01-07T18:29:41.694Z,9.60
2018-01-07T18:32:10.737Z,9.60
2018-01-07T18:34:39.127Z,13.67
2018-01-07T18:37:07.433Z,8.57
2018-01-07T18:39:35.761Z,9.60
2018-01-07T18:42:04.076Z,15.07
2018-01-07T18:44:32.386Z,9.40
2018-01-07T18:47:00.756Z,9.40
2018-01-07T18:49:29.754Z,7.87
2018-01-07T18:51:58.060Z,9.53
2018-01-07T18:54:26.351Z,9.40
2018-01-07T18:56:54.641Z,8.80
2018-01-07T18:59:22.958Z,9.50
2018-01-07T19:01:51.257Z,9.90
2018-01-07T19:04:19.550Z,9.50
2018-01-07T19:06:47.883Z,9.47
2018-01-07T19:09:16.417Z,10.17
2018-01-07T19:11:44.768Z,10.07
2018-01-07T19:14:13.145Z,12.10
2018-01-07T19:16:42.245Z,11.47
2018-01-07T19:19:11.311Z,10.80
2018-01-07T19:21:39.602Z,8.63
2018-01-07T19:24:08.023Z,10.80
2018-01-07T19:26:36.338Z,10.40
2018-01-07T19:29:05.411Z,11.60
2018-01-07T19:31:33.716Z,10.93
2018-01-07T19:34:02.056Z,11.60
2018-01-07T19:36:30.475Z,12.80
2018-01-07T19:38:58.789Z,13.60
2018-01-07T19:41:27.082Z,11.90
2018-01-07T19:43:56.147Z,12.60
2018-01-07T19:46:24.469Z,13.33
2018-01-07T19:48:52.807Z,13.33
2018-01-07T19:51:21.103Z,12.53
2018-01-07T19:53:49.410Z,12.53
2018-01-07T19:56:17.719Z,12.10
2018-01-07T19:58:46.056Z,12.70
2018-01-07T20:01:14.376Z,11.93
2018-01-07T20:03:42.684Z,17.40
2018-01-07T20:06:10.990Z,14.33
2018-01-07T20:08:39.295Z,11.40
2018-01-07T20:11:07.659Z,13.00
2018-01-07T20:13:35.990Z,14.67
2018-01-07T20:16:05.081Z,20.43
2018-01-07T20:18:33.414Z,13.90
2018-01-07T20:21:01.730Z,13.10
2018-01-07T20:23:30.087Z,14.37
2018-01-07T20:25:58.382Z,14.50
2018-01-07T20:28:26.675Z,15.97
2018-01-07T20:30:54.984Z,14.90
2018-01-07T20:33:23.288Z,12.63
2018-01-07T20:35:51.627Z,14.30
2018-01-07T20:38:19.939Z,15.57
2018-01-07T20:40:48.233Z,14.87
2018-01-07T20:43:16.566Z,16.07
2018-01-07T20:45:44.868Z,14.90
2018-01-07T20:48:13.211Z,14.20
2018-01-07T20:50:41.519Z,13.67
2018-01-07T20:53:09.820Z,17.70
2018-01-07T20:55:38.122Z,14.90
2018-01-07T20:58:06.607Z,16.60
2018-01-07T21:00:34.957Z,16.47
2018-01-07T21:03:03.301Z,15.90
2018-01-07T21:05:31.620Z,14.30
2018-01-07T21:08:02.786Z,15.43
2018-01-07T21:10:31.883Z,15.10
2018-01-07T21:13:00.265Z,16.43
2018-01-07T21:15:28.614Z,15.17
2018-01-07T21:17:56.909Z,17.40
2018-01-07T21:20:25.210Z,15.67
2018-01-07T21:22:53.508Z,16.37
2018-01-07T21:25:21.810Z,15.00
2018-01-07T21:27:50.882Z,15.83
2018-01-07T21:30:19.210Z,16.63
2018-01-07T21:32:48.281Z,21.50
2018-01-07T21:35:16.581Z,18.00
2018-01-07T21:37:44.878Z,19.00
2018-01-07T21:40:13.178Z,17.10
2018-01-07T21:42:41.520Z,15.53
2018-01-07T21:45:09.817Z,15.33
2018-01-07T21:47:38.121Z,14.50
2018-01-07T21:50:06.442Z,17.30
2018-01-07T21:52:34.760Z,17.67
2018-01-07T21:55:03.164Z,17.57
2018-01-07T21:57:32.253Z,16.33
2018-01-07T22:00:12.509Z,15.97
2018-01-07T22:02:44.681Z,16.90
2018-01-07T22:05:15.833Z,16.90
2018-01-07T22:07:44.168Z,16.27
2018-01-07T22:10:12.474Z,17.77
2018-01-07T22:12:40.807Z,18.13
2018-01-07T22:15:09.125Z,17.80
2018-01-07T22:17:38.217Z,15.73
2018-01-07T22:20:07.285Z,57.40
2018-01-07T22:22:35.610Z,18.53
2018-01-07T22:25:03.935Z,16.10
2018-01-07T22:27:32.263Z,15.83
2018-01-07T22:30:00.644Z,17.93
2018-01-07T22:32:28.958Z,17.83
2018-01-07T22:34:57.258Z,19.30
2018-01-07T22:37:25.573Z,16.90
2018-01-07T22:39:54.640Z,22.00
2018-01-07T22:42:22.986Z,18.87
2018-01-07T22:44:51.290Z,16.67
2018-01-07T22:47:25.188Z,18.57
2018-01-07T22:49:53.496Z,13.77
2018-01-07T22:52:21.782Z,17.50
2018-01-07T22:54:50.096Z,17.27
2018-01-07T22:57:18.405Z,19.20
2018-01-07T22:59:46.735Z,19.70
2018-01-07T23:02:15.811Z,16.67
2018-01-07T23:04:44.114Z,18.30
2018-01-07T23:07:13.187Z,16.27
2018-01-07T23:09:41.491Z,17.20
2018-01-07T23:12:09.817Z,22.10
2018-01-07T23:14:38.902Z,17.20
2018-01-07T23:17:07.211Z,17.63
2018-01-07T23:19:36.285Z,16.57
2018-01-07T23:22:04.605Z,18.30
2018-01-07T23:24:32.952Z,16.83
2018-01-07T23:27:01.248Z,15.90
2018-01-07T23:29:29.581Z,17.47
2018-01-07T23:31:58.655Z,16.07
2018-01-07T23:34:26.951Z,16.80
2018-01-07T23:36:55.381Z,18.40
2018-01-07T23:39:24.439Z,17.30
2018-01-07T23:41:52.747Z,16.73
2018-01-07T23:44:21.059Z,17.23
2018-01-07T23:46:50.118Z,17.00
2018-01-07T23:49:18.687Z,18.07
2018-01-07T23:51:47.014Z,16.60
2018-01-07T23:54:15.315Z,17.80
2018-01-07T23:56:43.637Z,19.27
2018-01-07T23:59:12.730Z,17.80
